Ranchester, WY (82839)

9:27 AM MDT on September 22, 2014 (GMT -0600)
KWYSHERI2 | Change Station
CLOSE
Current Station
Personal Weather Station
Location: Sheridan, WY
Elevation: 3828 ft
Nearby Weather Stations

Elev 3828 ft 44.81 °N, 106.98 °W | Updated 5 minutes ago

Partly Cloudy
Partly Cloudy
62.4 °F
Feels Like 62.4 °F
N
0.0
Wind Variable Wind from NE
Gusts 0.0 mph

Today
High -- | Low -- °F
--% Chance of Precip.
Yesterday
High -- | Low -- °F
Precip. -- in
6:55 AM 7:05 PM
Waning Crescent, 2% visible
Pressure 29.93 in
Visibility 10.0 miles
Clouds Clear
Dew Point 46 °F
Humidity 55%
Rainfall 0.00 in
Snow Depth 0 in , 0 in , 0 in
UV 1 out of 12
Pollen 4.70 out of 12
Air Quality Not available.
Flu Activity Not available.
METAR KSHR 221453Z AUTO 00000KT 10SM CLR 15/08 A2999 RMK AO2 SLP134 T01500083 56009

More Conditions Fewer Conditions

Pressure 29.93 in
Visibility 10.0 miles
Clouds Clear
Dew Point 46 °F
Humidity 55%
Rainfall 0.00 in
Snow Depth 0 in , 0 in , 0 in
UV 1 out of 12
Pollen 4.70 out of 12
Air Quality Not available.
Flu Activity Not available.
METAR KSHR 221453Z AUTO 00000KT 10SM CLR 15/08 A2999 RMK AO2 SLP134 T01500083 56009

More Conditions Fewer Conditions

10-Day Weather Forecast

Almanac

Astronomy

Sep. 22, 2014 Rise Set
Actual Time 6:55 AM MDT 7:05 PM MDT
Civil Twilight 6:26 AM MDT 7:35 PM MDT
Nautical Twilight 5:51 AM MDT 8:09 PM MDT
Astronomical Twilight 5:16 AM MDT 8:44 PM MDT
Moon 5:24 AM MDT 6:16 PM MDT
Length of Visible Light 13h 08m
Length of Day
12h 10m
Tomorrow will be 3m 6s shorter.
Waning Crescent, 2% of the Moon is Illuminated
Today
Waning Crescent
Sep 24
New
Oct 1
First Quarter
Oct 8
Full
Oct 15
Last Quarter

Today's Extremes

State Highs State Lows

Community

WunderPhotos

Upload Photos

1,755,465 photos uploaded!

Nearby

Snow Depth

Station Depth Elevation
Webber Springs 0 in 9250 ft
Beartooth Lake 0 in 9275 ft
Kelley R.S. 0 in 8180 ft
Kendall R.S. 1 in 7740 ft
Bone Springs Divide 0 in 9350 ft

Earthquake Activity

City Distance Mag. Time & Date
No recent earthquake activity has been reported nearby.
Minimum magnitude displayed is 2.5.

Coastal Water Temperatures

Place Temperature
No Stations Reporting

Nearby Weather Stations